Time;durP1;ratioP1;P1;durP2;ratioP2;P2;SDS_P1;SDS_P2;PMS_P1;PMS_P2;Temp;Humidity;BMP_temperature;BMP_pressure;BME280_temperature;BME280_humidity;BME280_pressure;Samples;Min_cycle;Max_cycle;Signal;HPM_P1;HPM_P2
2022/11/13 00:01:42;;;;;;;12.18;6.72;;;10.50;99.90;;;;;;4202053;28;20036;-61
2022/11/13 00:03:43;;;;;;;14.77;7.95;;;10.50;99.90;;;;;;4205025;28;20031;-61
2022/11/13 00:05:44;;;;;;;12.77;6.72;;;10.50;99.90;;;;;;4207549;28;20035;-61
2022/11/13 00:07:44;;;;;;;11.98;6.85;;;10.50;99.90;;;;;;4200863;28;20116;-61
2022/11/13 00:09:45;;;;;;;12.57;7.13;;;10.40;99.90;;;;;;4195785;28;20086;-61
2022/11/13 00:11:45;;;;;;;11.13;6.95;;;10.40;99.90;;;;;;4197501;28;20094;-61
2022/11/13 00:13:47;;;;;;;11.73;7.35;;;10.50;99.90;;;;;;4207804;28;20039;-61
2022/11/13 00:16:02;;;;;;;11.13;7.13;;;10.40;99.90;;;;;;4200041;28;20084;-61
2022/11/13 00:18:03;;;;;;;12.45;8.05;;;10.40;99.90;;;;;;4199959;28;20036;-61
2022/11/13 00:20:04;;;;;;;12.48;7.88;;;10.30;99.90;;;;;;4199559;28;20115;-63
2022/11/13 00:22:04;;;;;;;13.50;7.82;;;10.30;99.90;;;;;;4203405;28;20043;-61
2022/11/13 00:24:05;;;;;;;13.52;8.20;;;10.30;99.90;;;;;;4202505;28;20036;-61
2022/11/13 00:26:14;;;;;;;15.50;8.20;;;10.30;99.90;;;;;;4204834;28;20063;-61
2022/11/13 00:28:15;;;;;;;12.80;7.68;;;10.30;99.90;;;;;;4207472;28;20028;-61
2022/11/13 00:30:15;;;;;;;12.77;7.93;;;10.30;99.90;;;;;;4203256;28;20027;-61
2022/11/13 00:32:16;;;;;;;13.90;7.95;;;10.30;99.90;;;;;;4202060;28;20025;-61
2022/11/13 00:34:17;;;;;;;11.50;7.15;;;10.30;99.90;;;;;;4197935;28;20385;-61
2022/11/13 00:36:23;;;;;;;13.00;7.25;;;10.30;99.90;;;;;;4201129;28;20043;-61
2022/11/13 00:38:23;;;;;;;13.63;7.30;;;10.30;99.90;;;;;;4201440;28;20024;-62
2022/11/13 00:40:24;;;;;;;11.35;7.20;;;10.20;99.90;;;;;;4201167;28;20430;-62
2022/11/13 00:42:24;;;;;;;11.05;6.72;;;10.30;99.90;;;;;;4201305;28;20456;-62
2022/11/13 00:44:25;;;;;;;11.45;7.20;;;10.20;99.90;;;;;;4202240;28;20056;-61
2022/11/13 00:46:25;;;;;;;11.88;7.07;;;10.20;99.90;;;;;;4205934;28;20036;-61
2022/11/13 00:48:26;;;;;;;11.35;7.18;;;10.20;99.90;;;;;;4202873;28;20509;-61
2022/11/13 00:50:27;;;;;;;12.70;7.70;;;10.20;99.90;;;;;;4203421;28;20387;-61
2022/11/13 00:52:27;;;;;;;10.48;6.53;;;10.20;99.90;;;;;;4204856;28;20434;-61
2022/11/13 00:54:28;;;;;;;11.10;7.18;;;10.20;99.90;;;;;;4201634;28;20383;-61
2022/11/13 00:56:28;;;;;;;11.43;7.05;;;10.20;99.90;;;;;;4206159;28;20051;-61
2022/11/13 00:58:29;;;;;;;13.93;8.35;;;10.10;99.90;;;;;;4202409;28;20445;-61
2022/11/13 01:00:31;;;;;;;14.30;8.35;;;10.10;99.90;;;;;;4206323;28;21004;-61
2022/11/13 01:02:31;;;;;;;13.50;8.15;;;10.20;99.90;;;;;;4205859;28;20040;-61
2022/11/13 01:04:32;;;;;;;13.60;8.65;;;10.10;99.90;;;;;;4201581;28;20048;-61
2022/11/13 01:06:33;;;;;;;14.65;7.75;;;10.00;99.90;;;;;;4197933;28;20031;-61
2022/11/13 01:08:33;;;;;;;13.77;7.82;;;10.00;99.90;;;;;;4209407;27;20042;-61
2022/11/13 01:10:38;;;;;;;12.90;7.53;;;10.00;99.90;;;;;;4217066;28;20120;-61
2022/11/13 01:12:40;;;;;;;11.43;7.10;;;9.90;99.90;;;;;;4213833;28;20464;-61
2022/11/13 01:14:40;;;;;;;11.88;7.47;;;9.90;99.90;;;;;;4218181;28;20047;-61
2022/11/13 01:16:41;;;;;;;13.25;8.00;;;9.90;99.90;;;;;;4217483;28;20035;-61
2022/11/13 01:18:42;;;;;;;11.23;7.60;;;9.90;99.90;;;;;;4219905;28;20111;-61
2022/11/13 01:20:43;;;;;;;14.90;8.52;;;9.80;99.90;;;;;;4216465;28;20383;-61
2022/11/13 01:22:44;;;;;;;14.52;8.77;;;9.80;99.90;;;;;;4214409;28;20035;-61
2022/11/13 01:24:45;;;;;;;15.82;9.18;;;9.70;99.90;;;;;;4221679;28;20063;-61
2022/11/13 01:26:45;;;;;;;18.75;10.13;;;9.60;99.90;;;;;;4216991;27;20498;-61
2022/11/13 01:28:46;;;;;;;22.90;12.82;;;9.60;99.90;;;;;;4211533;27;20031;-61
2022/11/13 01:30:47;;;;;;;28.23;14.52;;;9.50;99.90;;;;;;4211764;28;20067;-61
2022/11/13 01:32:48;;;;;;;24.33;14.07;;;9.50;99.90;;;;;;4216185;27;20039;-61
2022/11/13 01:34:48;;;;;;;22.38;12.75;;;9.50;99.90;;;;;;4218928;27;20102;-61
2022/11/13 01:36:49;;;;;;;25.35;13.43;;;9.40;99.90;;;;;;4217873;28;20535;-61
2022/11/13 01:38:50;;;;;;;25.92;13.15;;;9.40;99.90;;;;;;4216886;28;20554;-61
2022/11/13 01:40:50;;;;;;;23.50;12.68;;;9.40;99.90;;;;;;4217731;28;20042;-61
2022/11/13 01:42:51;;;;;;;24.25;13.05;;;9.40;99.90;;;;;;4210521;28;20036;-61
2022/11/13 01:44:54;;;;;;;19.92;12.20;;;9.40;99.90;;;;;;4201097;28;20028;-61
2022/11/13 01:46:55;;;;;;;18.70;11.02;;;9.40;99.90;;;;;;4203042;28;20033;-64
2022/11/13 01:49:11;;;;;;;17.35;10.35;;;9.40;99.90;;;;;;4203324;28;20491;-62
2022/11/13 01:51:23;;;;;;;16.92;9.82;;;9.50;99.90;;;;;;4202003;28;20415;-61
2022/11/13 01:53:24;;;;;;;17.05;9.38;;;9.60;99.90;;;;;;4203207;28;20037;-61
2022/11/13 01:55:25;;;;;;;16.73;9.32;;;9.60;99.90;;;;;;4204126;28;20036;-61
2022/11/13 01:57:26;;;;;;;15.23;9.05;;;9.60;99.90;;;;;;4206123;28;20099;-64
2022/11/13 01:59:31;;;;;;;15.98;9.95;;;9.70;99.90;;;;;;4201062;28;20020;-61
2022/11/13 02:01:32;;;;;;;15.20;9.55;;;9.70;99.90;;;;;;4202823;28;20510;-61
2022/11/13 02:03:33;;;;;;;18.38;9.38;;;9.70;99.90;;;;;;4201929;28;20032;-61
2022/11/13 02:05:33;;;;;;;16.75;9.68;;;9.70;99.90;;;;;;4220867;28;20052;-62
2022/11/13 02:07:34;;;;;;;17.58;9.35;;;9.70;99.90;;;;;;4216539;28;20032;-61
2022/11/13 02:09:38;;;;;;;16.42;9.00;;;9.70;99.90;;;;;;4221058;28;20023;-61
2022/11/13 02:11:39;;;;;;;16.77;9.07;;;9.80;99.90;;;;;;4199548;28;20032;-61
2022/11/13 02:13:40;;;;;;;15.38;9.40;;;9.80;99.90;;;;;;4205861;27;20059;-61
2022/11/13 02:15:42;;;;;;;15.05;9.00;;;9.80;99.90;;;;;;4201213;28;20074;-61
2022/11/13 02:17:56;;;;;;;14.63;8.27;;;9.80;99.90;;;;;;4199560;28;20036;-61
2022/11/13 02:20:00;;;;;;;17.92;8.70;;;9.80;99.90;;;;;;4202221;28;20030;-62
2022/11/13 02:22:16;;;;;;;15.75;9.05;;;9.80;99.90;;;;;;4198207;28;20028;-61
2022/11/13 02:24:35;;;;;;;14.13;8.52;;;9.80;99.90;;;;;;4222121;28;20019;-61
2022/11/13 02:26:36;;;;;;;17.10;9.13;;;9.80;99.90;;;;;;4210317;28;20545;-61
2022/11/13 02:28:37;;;;;;;15.90;8.57;;;9.80;99.90;;;;;;4209655;28;20024;-61
2022/11/13 02:30:38;;;;;;;16.60;9.18;;;9.80;99.90;;;;;;4205210;28;20700;-61
2022/11/13 02:32:47;;;;;;;16.73;9.05;;;9.80;99.90;;;;;;4204713;28;20120;-61
2022/11/13 02:34:48;;;;;;;15.30;8.32;;;9.90;99.90;;;;;;4202778;28;20044;-61
2022/11/13 02:36:49;;;;;;;17.17;9.40;;;9.80;99.90;;;;;;4199462;28;20040;-61
2022/11/13 02:38:51;;;;;;;17.73;9.63;;;9.90;99.90;;;;;;4201792;28;20036;-61
2022/11/13 02:40:52;;;;;;;14.20;8.95;;;9.90;99.90;;;;;;4197731;28;20089;-61
2022/11/13 02:42:52;;;;;;;12.82;8.32;;;9.90;99.90;;;;;;4200154;28;20442;-61
2022/11/13 02:44:53;;;;;;;15.82;8.02;;;9.90;99.90;;;;;;4202087;28;20054;-61
2022/11/13 02:46:53;;;;;;;12.57;7.47;;;9.90;99.90;;;;;;4198809;28;20043;-61
2022/11/13 02:48:54;;;;;;;14.25;7.78;;;10.00;99.90;;;;;;4203073;28;20123;-61
2022/11/13 02:50:55;;;;;;;11.00;6.90;;;10.00;99.90;;;;;;4198402;28;20036;-61
2022/11/13 02:52:55;;;;;;;12.45;7.40;;;9.90;99.90;;;;;;4201710;28;20051;-61
2022/11/13 02:54:56;;;;;;;11.60;7.15;;;9.90;99.90;;;;;;4201205;28;20028;-61
2022/11/13 02:56:56;;;;;;;11.55;7.00;;;9.90;99.90;;;;;;4213847;28;20558;-63
2022/11/13 02:58:57;;;;;;;12.07;7.43;;;9.90;99.90;;;;;;4213456;28;20483;-63
2022/11/13 03:01:01;;;;;;;12.52;6.93;;;9.90;99.90;;;;;;4214203;28;20384;-62
2022/11/13 03:03:01;;;;;;;14.48;7.65;;;9.90;99.90;;;;;;4196267;28;20510;-61
2022/11/13 03:05:02;;;;;;;15.98;7.63;;;9.90;99.90;;;;;;4213796;28;20036;-62
2022/11/13 03:07:03;;;;;;;10.68;6.72;;;9.90;99.90;;;;;;4213770;28;20486;-61
2022/11/13 03:09:03;;;;;;;12.90;6.68;;;9.90;99.90;;;;;;4214765;28;20056;-61
2022/11/13 03:11:09;;;;;;;12.30;7.05;;;9.90;99.90;;;;;;4211979;28;20016;-61
2022/11/13 03:13:10;;;;;;;9.38;6.10;;;9.90;99.90;;;;;;4213548;28;20105;-61
2022/11/13 03:15:11;;;;;;;12.98;6.78;;;10.00;99.90;;;;;;4213673;28;20070;-62
2022/11/13 03:17:11;;;;;;;10.75;6.93;;;10.00;99.90;;;;;;4216055;28;20047;-61
2022/11/13 03:19:13;;;;;;;11.77;6.72;;;10.00;99.90;;;;;;4215439;28;20100;-61
2022/11/13 03:21:14;;;;;;;11.30;6.78;;;10.00;99.90;;;;;;4214859;28;20043;-61
2022/11/13 03:23:15;;;;;;;10.13;6.63;;;10.00;99.90;;;;;;4195565;28;20028;-61
2022/11/13 03:25:16;;;;;;;11.55;7.05;;;10.00;99.90;;;;;;4213489;28;20044;-61
2022/11/13 03:27:16;;;;;;;12.13;6.65;;;10.00;99.90;;;;;;4214304;28;20040;-61
2022/11/13 03:29:17;;;;;;;11.52;6.78;;;10.00;99.90;;;;;;4215918;28;20046;-61
2022/11/13 03:31:17;;;;;;;12.07;6.72;;;9.90;99.90;;;;;;4218451;28;20040;-61
2022/11/13 03:33:18;;;;;;;11.40;6.28;;;9.90;99.90;;;;;;4214191;28;20374;-61
2022/11/13 03:35:18;;;;;;;11.05;6.32;;;9.90;99.90;;;;;;4215658;28;20058;-61
2022/11/13 03:37:19;;;;;;;10.88;6.38;;;9.90;99.90;;;;;;4220417;28;20036;-61
2022/11/13 03:39:20;;;;;;;10.82;6.25;;;9.90;99.90;;;;;;4216004;28;20046;-61
2022/11/13 03:41:21;;;;;;;10.70;6.50;;;9.90;99.90;;;;;;4216978;28;20082;-61
2022/11/13 03:43:22;;;;;;;9.25;5.95;;;9.90;99.90;;;;;;4194043;28;20090;-61
2022/11/13 03:45:22;;;;;;;10.30;6.30;;;9.90;99.90;;;;;;4219781;28;20460;-61
2022/11/13 03:47:23;;;;;;;11.50;6.13;;;9.90;99.90;;;;;;4215639;28;20032;-60
2022/11/13 03:49:24;;;;;;;10.90;6.68;;;9.90;99.90;;;;;;4217473;28;20085;-61
2022/11/13 03:51:25;;;;;;;10.65;6.25;;;9.90;99.90;;;;;;4217137;28;20231;-61
2022/11/13 03:53:26;;;;;;;9.48;5.47;;;9.90;99.90;;;;;;4217668;28;20040;-61
2022/11/13 03:55:26;;;;;;;10.82;6.10;;;9.80;99.90;;;;;;4224453;28;20036;-61
2022/11/13 03:57:27;;;;;;;9.30;5.85;;;9.80;99.90;;;;;;4228984;28;20088;-61
2022/11/13 03:59:27;;;;;;;9.38;6.00;;;9.80;99.90;;;;;;4201894;28;20013;-63
2022/11/13 04:01:28;;;;;;;11.38;6.20;;;9.80;99.90;;;;;;4214811;28;20150;-62
2022/11/13 04:03:28;;;;;;;12.13;6.35;;;9.80;99.90;;;;;;4219227;28;20028;-61
2022/11/13 04:05:29;;;;;;;9.20;5.80;;;9.70;99.90;;;;;;4215997;28;20478;-61
2022/11/13 04:07:30;;;;;;;12.85;6.88;;;9.70;99.90;;;;;;4227187;28;20062;-60
2022/11/13 04:09:30;;;;;;;9.73;6.43;;;9.70;99.90;;;;;;4218678;28;20072;-61
2022/11/13 04:11:31;;;;;;;10.82;5.75;;;9.70;99.90;;;;;;4217866;28;20040;-61
2022/11/13 04:13:32;;;;;;;9.82;5.63;;;9.70;99.90;;;;;;4216592;28;20039;-61
2022/11/13 04:15:33;;;;;;;9.77;5.82;;;9.70;99.90;;;;;;4218797;28;20025;-61
2022/11/13 04:17:34;;;;;;;8.93;5.45;;;9.70;99.90;;;;;;4222572;28;20020;-61
2022/11/13 04:19:34;;;;;;;8.43;5.40;;;9.80;99.90;;;;;;4218767;28;20032;-61
2022/11/13 04:21:35;;;;;;;10.50;5.85;;;9.70;99.90;;;;;;4200910;28;20089;-61
2022/11/13 04:23:35;;;;;;;9.73;5.50;;;9.70;99.90;;;;;;4218479;28;20386;-63
2022/11/13 04:25:36;;;;;;;9.18;5.65;;;9.70;99.90;;;;;;4226354;28;20019;-61
2022/11/13 04:27:36;;;;;;;9.65;5.75;;;9.70;99.90;;;;;;4214852;28;20490;-62
2022/11/13 04:29:37;;;;;;;10.65;5.70;;;9.70;99.90;;;;;;4216423;28;20020;-62
2022/11/13 04:31:38;;;;;;;9.13;5.85;;;9.60;99.90;;;;;;4219715;28;20055;-61
2022/11/13 04:33:38;;;;;;;9.63;6.45;;;9.60;99.90;;;;;;4219806;28;20028;-61
2022/11/13 04:35:41;;;;;;;10.57;5.82;;;9.60;99.90;;;;;;4217691;28;20024;-61
2022/11/13 04:37:41;;;;;;;;;;;9.60;99.90;;;;;;4223006;28;20475;-61
2022/11/13 04:39:42;;;;;;;8.30;5.57;;;9.60;99.90;;;;;;4220647;28;19914;-61
2022/11/13 04:44:01;;;;;;;10.45;5.35;;;9.50;99.90;;;;;;4219897;28;20023;-61
2022/11/13 04:46:02;;;;;;;9.15;5.05;;;9.50;99.90;;;;;;4221012;28;20394;-61
2022/11/13 04:48:03;;;;;;;8.55;4.97;;;9.50;99.90;;;;;;4220271;28;20028;-61
2022/11/13 04:50:04;;;;;;;8.98;5.50;;;9.50;99.90;;;;;;4217864;28;20448;-61
2022/11/13 04:52:05;;;;;;;9.90;5.43;;;9.50;99.90;;;;;;4216380;28;20085;-61
2022/11/13 04:54:05;;;;;;;8.88;5.82;;;9.50;99.90;;;;;;4222325;28;20040;-64
2022/11/13 04:56:06;;;;;;;7.57;4.90;;;9.40;99.90;;;;;;4219832;28;20035;-61
2022/11/13 04:58:06;;;;;;;10.98;5.35;;;9.40;99.90;;;;;;4223672;28;20027;-61
2022/11/13 05:00:08;;;;;;;10.63;5.55;;;9.30;99.90;;;;;;4217000;28;20411;-62
2022/11/13 05:02:09;;;;;;;9.70;5.68;;;9.30;99.90;;;;;;4214235;28;20040;-62
2022/11/13 05:04:13;;;;;;;7.70;5.20;;;9.30;99.90;;;;;;4225075;28;20052;-61
2022/11/13 05:06:14;;;;;;;8.00;5.28;;;9.30;99.90;;;;;;4219242;28;20032;-61
2022/11/13 05:08:15;;;;;;;9.98;5.55;;;9.20;99.90;;;;;;4218860;28;20031;-61
2022/11/13 05:10:15;;;;;;;9.02;5.75;;;9.20;99.90;;;;;;4202746;28;20048;-61
2022/11/13 05:12:16;;;;;;;8.65;5.80;;;9.20;99.90;;;;;;4211198;28;20036;-62
2022/11/13 05:14:17;;;;;;;6.47;4.63;;;9.20;99.90;;;;;;4223039;28;20039;-61
2022/11/13 05:16:17;;;;;;;7.97;5.30;;;9.20;99.90;;;;;;4219787;28;20502;-61
2022/11/13 05:18:18;;;;;;;8.63;5.15;;;9.10;99.90;;;;;;4225102;28;20032;-61
2022/11/13 05:20:19;;;;;;;9.60;5.78;;;9.10;99.90;;;;;;4219999;28;20390;-61
2022/11/13 05:22:20;;;;;;;9.48;5.15;;;9.10;99.90;;;;;;4218767;28;20036;-61
2022/11/13 05:24:20;;;;;;;6.95;4.75;;;9.10;99.90;;;;;;4226875;28;20096;-61
2022/11/13 05:26:21;;;;;;;9.30;5.65;;;9.00;99.90;;;;;;4214578;28;20043;-61
2022/11/13 05:28:21;;;;;;;8.32;5.68;;;9.00;99.90;;;;;;4220831;28;20027;-61
2022/11/13 05:30:22;;;;;;;11.90;6.20;;;8.90;99.90;;;;;;4219511;28;20043;-61
2022/11/13 05:32:23;;;;;;;10.52;5.78;;;8.70;99.90;;;;;;4218586;28;20035;-61
2022/11/13 05:34:23;;;;;;;10.80;6.15;;;8.50;99.90;;;;;;4222527;28;20063;-61
2022/11/13 05:36:24;;;;;;;10.98;6.53;;;8.40;99.90;;;;;;4217770;28;20032;-61
2022/11/13 05:38:24;;;;;;;11.32;6.40;;;8.30;99.90;;;;;;4219877;28;20101;-61
2022/11/13 05:40:25;;;;;;;11.50;6.82;;;8.30;99.90;;;;;;4213115;28;20029;-60
2022/11/13 05:42:25;;;;;;;11.45;6.50;;;8.20;99.90;;;;;;4200075;28;20680;-61
2022/11/13 05:44:26;;;;;;;13.05;6.30;;;8.20;99.90;;;;;;4201197;28;20062;-61
2022/11/13 05:46:28;;;;;;;10.90;6.25;;;8.10;99.90;;;;;;4199883;28;20297;-61
2022/11/13 05:48:29;;;;;;;11.45;6.07;;;8.10;99.90;;;;;;4198418;28;20036;-60
2022/11/13 05:50:29;;;;;;;12.30;5.93;;;8.10;99.90;;;;;;4200020;28;20400;-62
2022/11/13 05:52:30;;;;;;;13.75;5.75;;;8.20;99.90;;;;;;4198658;28;20478;-62
2022/11/13 05:54:31;;;;;;;9.27;5.35;;;8.20;99.90;;;;;;4198671;28;20044;-61
2022/11/13 05:56:34;;;;;;;8.30;5.03;;;8.30;99.90;;;;;;4200953;28;20033;-62
2022/11/13 05:58:35;;;;;;;8.70;5.53;;;8.30;99.90;;;;;;4200435;28;20055;-61
2022/11/13 06:00:35;;;;;;;9.48;5.35;;;8.30;99.90;;;;;;4199573;28;20059;-61
2022/11/13 06:02:36;;;;;;;8.20;4.93;;;8.40;99.90;;;;;;4200523;28;20028;-61
2022/11/13 06:04:36;;;;;;;8.77;4.88;;;8.40;99.90;;;;;;4200710;28;20117;-61
2022/11/13 06:06:37;;;;;;;7.63;4.80;;;8.40;99.90;;;;;;4201386;28;20499;-61
2022/11/13 06:08:38;;;;;;;8.45;4.90;;;8.50;99.90;;;;;;4197995;28;20509;-61
2022/11/13 06:10:38;;;;;;;9.05;5.30;;;8.50;99.90;;;;;;4204605;28;20434;-62
2022/11/13 06:12:39;;;;;;;8.50;5.05;;;8.50;99.90;;;;;;4200543;28;20032;-61
2022/11/13 06:14:40;;;;;;;10.23;6.03;;;8.50;99.90;;;;;;4201313;28;20506;-62
2022/11/13 06:16:40;;;;;;;10.38;5.57;;;8.40;99.90;;;;;;4201179;28;20122;-61
2022/11/13 06:18:42;;;;;;;12.02;5.78;;;8.40;99.90;;;;;;4204364;28;20034;-61
2022/11/13 06:20:43;;;;;;;13.02;5.90;;;8.40;99.90;;;;;;4197879;28;20031;-60
2022/11/13 06:22:44;;;;;;;9.55;5.72;;;8.40;99.90;;;;;;4197945;28;20081;-61
2022/11/13 06:24:44;;;;;;;10.02;5.55;;;8.40;99.90;;;;;;4208141;28;20458;-61
2022/11/13 06:26:45;;;;;;;9.65;5.32;;;8.40;99.90;;;;;;4200175;28;20089;-61
2022/11/13 06:28:46;;;;;;;10.90;5.80;;;8.50;99.90;;;;;;4209414;28;20039;-61
2022/11/13 06:30:46;;;;;;;9.70;5.28;;;8.40;99.90;;;;;;4209446;28;20032;-61
2022/11/13 06:32:53;;;;;;;9.88;5.40;;;8.40;99.90;;;;;;4214476;28;20032;-64
2022/11/13 06:34:54;;;;;;;9.32;5.43;;;8.40;99.90;;;;;;4214196;28;20060;-64
2022/11/13 06:36:54;;;;;;;8.82;4.95;;;8.40;99.90;;;;;;4211064;28;20028;-64
2022/11/13 06:38:55;;;;;;;9.10;5.25;;;8.40;99.90;;;;;;4209142;28;20036;-64
2022/11/13 06:40:56;;;;;;;8.63;5.30;;;8.40;99.90;;;;;;4202378;28;20483;-64
2022/11/13 06:42:57;;;;;;;8.48;4.88;;;8.30;99.90;;;;;;4214295;28;20112;-64
2022/11/13 06:44:57;;;;;;;10.57;5.20;;;8.30;99.90;;;;;;4214320;28;20557;-63
2022/11/13 06:46:58;;;;;;;8.32;5.22;;;8.30;99.90;;;;;;4196229;28;20036;-64
2022/11/13 06:48:59;;;;;;;10.30;5.38;;;8.30;99.90;;;;;;4209179;28;20044;-64
2022/11/13 06:51:01;;;;;;;10.23;5.20;;;8.30;99.90;;;;;;4196336;28;20040;-64
2022/11/13 06:53:02;;;;;;;8.45;5.20;;;8.30;99.90;;;;;;4194894;28;20499;-64
2022/11/13 06:55:03;;;;;;;8.18;4.93;;;8.30;99.90;;;;;;4196537;28;20037;-68
2022/11/13 06:57:04;;;;;;;9.93;4.85;;;8.30;99.90;;;;;;4199016;28;20028;-64
2022/11/13 06:59:04;;;;;;;11.63;4.75;;;8.30;99.90;;;;;;4197711;28;20229;-64
2022/11/13 07:01:19;;;;;;;7.20;4.30;;;8.40;99.90;;;;;;4203342;28;20036;-64
2022/11/13 07:03:22;;;;;;;9.13;4.65;;;8.40;99.90;;;;;;4201715;28;20047;-63
2022/11/13 07:05:22;;;;;;;7.90;4.80;;;8.40;99.90;;;;;;4196570;28;20036;-63
2022/11/13 07:07:23;;;;;;;8.15;4.68;;;8.40;99.90;;;;;;4198107;28;20038;-64
2022/11/13 07:09:23;;;;;;;6.78;4.72;;;8.50;99.90;;;;;;4198177;28;20025;-64
2022/11/13 07:11:24;;;;;;;7.00;4.63;;;8.50;99.90;;;;;;4197348;28;20032;-64
2022/11/13 07:13:26;;;;;;;6.78;4.80;;;8.50;99.90;;;;;;4200100;28;20036;-63
2022/11/13 07:15:27;;;;;;;8.25;5.00;;;8.50;99.90;;;;;;4196638;28;20354;-63
2022/11/13 07:17:28;;;;;;;7.72;4.80;;;8.30;99.90;;;;;;4196878;28;20555;-64
2022/11/13 07:19:28;;;;;;;8.20;4.88;;;8.20;99.90;;;;;;4197174;28;20040;-64
2022/11/13 07:21:29;;;;;;;9.10;5.40;;;8.10;99.90;;;;;;4202112;28;20082;-64
2022/11/13 07:23:29;;;;;;;8.40;5.00;;;8.00;99.90;;;;;;4205284;28;20038;-64
2022/11/13 07:25:30;;;;;;;7.57;4.28;;;8.00;99.90;;;;;;4208588;28;20777;-64
2022/11/13 07:27:31;;;;;;;7.85;5.07;;;8.10;99.90;;;;;;4206862;28;20123;-65
2022/11/13 07:29:31;;;;;;;8.07;4.60;;;8.10;99.90;;;;;;4205075;28;20082;-64
2022/11/13 07:31:32;;;;;;;7.05;4.45;;;8.10;99.90;;;;;;4211191;28;20106;-64
2022/11/13 07:33:33;;;;;;;8.20;5.07;;;8.10;99.90;;;;;;4217138;28;20035;-64
2022/11/13 07:35:33;;;;;;;11.63;5.18;;;8.10;99.90;;;;;;4218156;28;20036;-64
2022/11/13 07:37:34;;;;;;;9.40;4.97;;;8.10;99.90;;;;;;4219410;28;20474;-64
2022/11/13 07:39:35;;;;;;;7.65;4.53;;;8.00;99.90;;;;;;4214149;28;20539;-64
2022/11/13 07:41:35;;;;;;;8.32;5.03;;;8.00;99.90;;;;;;4208272;28;20110;-64
2022/11/13 07:43:36;;;;;;;9.82;5.45;;;8.00;99.90;;;;;;4201147;28;20043;-63
2022/11/13 07:45:36;;;;;;;10.10;5.47;;;7.90;99.90;;;;;;4197540;28;20087;-64
2022/11/13 07:47:37;;;;;;;8.70;5.40;;;7.80;99.90;;;;;;4196843;28;20029;-64
2022/11/13 07:49:38;;;;;;;9.43;5.65;;;7.80;99.90;;;;;;4201464;28;20047;-64
2022/11/13 07:51:38;;;;;;;12.80;6.95;;;7.90;99.90;;;;;;4198743;28;20040;-64
2022/11/13 07:53:39;;;;;;;15.07;8.10;;;8.00;99.90;;;;;;4197787;28;20387;-64
2022/11/13 07:55:39;;;;;;;16.17;8.43;;;8.10;99.90;;;;;;4203653;28;20457;-64
2022/11/13 07:57:40;;;;;;;11.93;7.53;;;8.30;99.90;;;;;;4203794;28;20024;-64
2022/11/13 07:59:41;;;;;;;12.20;7.28;;;8.50;99.90;;;;;;4209371;28;20040;-64
2022/11/13 08:01:41;;;;;;;19.50;7.28;;;8.60;99.90;;;;;;4206957;28;20039;-68
2022/11/13 08:03:42;;;;;;;10.98;7.32;;;8.80;99.90;;;;;;4209775;28;20556;-65
2022/11/13 08:05:43;;;;;;;14.05;6.95;;;9.00;99.90;;;;;;4213526;28;20136;-65
2022/11/13 08:07:46;;;;;;;11.30;6.40;;;9.20;99.90;;;;;;4203773;28;20029;-65
2022/11/13 08:09:47;;;;;;;12.25;7.05;;;9.50;99.90;;;;;;4196842;28;20020;-65
2022/11/13 08:11:48;;;;;;;11.05;7.15;;;9.90;99.90;;;;;;4194845;28;20495;-65
2022/11/13 08:13:48;;;;;;;11.45;6.72;;;10.30;99.90;;;;;;4197560;28;20392;-65
2022/11/13 08:15:49;;;;;;;10.15;6.22;;;10.70;99.90;;;;;;4197944;28;20052;-65
2022/11/13 08:17:57;;;;;;;8.18;5.45;;;11.10;99.90;;;;;;4199771;28;20025;-65
2022/11/13 08:19:57;;;;;;;8.55;5.40;;;11.50;99.90;;;;;;4199419;28;20048;-64
2022/11/13 08:21:58;;;;;;;7.30;4.60;;;11.90;99.90;;;;;;4199571;28;20024;-65
2022/11/13 08:23:58;;;;;;;7.88;5.30;;;12.30;99.90;;;;;;4201334;28;20170;-65
2022/11/13 08:26:04;;;;;;;8.90;5.22;;;12.80;99.90;;;;;;4196592;28;20047;-64
2022/11/13 08:28:04;;;;;;;6.32;4.53;;;13.20;99.90;;;;;;4199242;28;20539;-65
2022/11/13 08:30:05;;;;;;;6.97;4.75;;;13.60;99.90;;;;;;4197071;28;20052;-66
2022/11/13 08:32:06;;;;;;;8.32;4.70;;;14.00;99.90;;;;;;4197719;28;20029;-65
2022/11/13 08:34:07;;;;;;;6.82;4.78;;;14.40;99.90;;;;;;4198353;28;20071;-65
2022/11/13 08:36:08;;;;;;;6.72;4.65;;;14.70;99.90;;;;;;4197033;28;20055;-65
2022/11/13 08:38:09;;;;;;;6.85;4.57;;;14.90;99.90;;;;;;4194148;28;20418;-65
2022/11/13 08:40:10;;;;;;;6.70;4.65;;;15.20;99.90;;;;;;4199677;28;20033;-66
2022/11/13 08:42:10;;;;;;;7.15;4.63;;;15.50;99.90;;;;;;4202031;28;20501;-65
2022/11/13 08:44:12;;;;;;;8.20;4.72;;;15.50;99.90;;;;;;4200369;28;20105;-66
2022/11/13 08:46:12;;;;;;;5.95;4.55;;;15.60;99.90;;;;;;4208356;28;20069;-65
2022/11/13 08:48:13;;;;;;;6.38;4.30;;;15.80;99.90;;;;;;4200674;28;20040;-67
2022/11/13 08:50:14;;;;;;;5.85;4.30;;;15.90;99.90;;;;;;4199652;28;20071;-65
2022/11/13 08:52:15;;;;;;;6.18;4.38;;;16.10;98.70;;;;;;4201974;28;20117;-66
2022/11/13 08:54:16;;;;;;;6.35;4.32;;;16.20;98.70;;;;;;4201423;28;20561;-66
2022/11/13 08:56:17;;;;;;;5.90;4.07;;;16.50;98.60;;;;;;4196585;28;20033;-66
2022/11/13 08:58:17;;;;;;;9.30;4.90;;;16.70;98.30;;;;;;4201529;28;20060;-66
2022/11/13 09:00:19;;;;;;;6.35;3.97;;;16.90;97.60;;;;;;4201961;28;20036;-66
2022/11/13 09:02:20;;;;;;;5.13;3.67;;;17.20;96.70;;;;;;4201948;28;20032;-66
2022/11/13 09:04:21;;;;;;;7.53;3.78;;;17.30;97.00;;;;;;4202466;28;20047;-66
2022/11/13 09:06:22;;;;;;;6.93;3.97;;;17.50;96.40;;;;;;4201799;28;20043;-66
2022/11/13 09:08:22;;;;;;;5.82;3.85;;;17.60;95.80;;;;;;4202598;28;20040;-65
2022/11/13 09:10:24;;;;;;;6.60;3.90;;;17.70;96.00;;;;;;4199920;28;20028;-66
2022/11/13 09:12:24;;;;;;;5.97;3.88;;;17.70;93.90;;;;;;4199744;28;20029;-66
2022/11/13 09:14:26;;;;;;;5.43;3.63;;;17.70;93.40;;;;;;4197845;28;20033;-66
2022/11/13 09:16:27;;;;;;;4.32;3.30;;;17.60;93.30;;;;;;4200768;28;20074;-66
2022/11/13 09:18:28;;;;;;;5.68;3.85;;;17.60;93.70;;;;;;4199094;28;20032;-66
2022/11/13 09:20:30;;;;;;;4.50;3.28;;;17.50;93.30;;;;;;4199560;28;20122;-66
2022/11/13 09:22:31;;;;;;;4.75;3.58;;;17.30;93.70;;;;;;4199465;28;20036;-66
2022/11/13 09:24:32;;;;;;;4.72;3.45;;;17.40;93.90;;;;;;4204390;28;20032;-67
2022/11/13 09:26:34;;;;;;;4.90;3.25;;;17.30;93.50;;;;;;4198884;28;20119;-67
2022/11/13 09:28:35;;;;;;;6.03;3.92;;;17.30;93.80;;;;;;4197261;28;20041;-66
2022/11/13 09:30:38;;;;;;;6.05;3.67;;;17.20;93.80;;;;;;4201020;28;20128;-66
2022/11/13 09:32:38;;;;;;;5.00;3.50;;;17.20;94.20;;;;;;4198540;28;20040;-66
2022/11/13 09:34:39;;;;;;;5.82;3.58;;;17.20;94.20;;;;;;4195803;28;20040;-66
2022/11/13 09:36:40;;;;;;;5.88;3.92;;;17.10;93.90;;;;;;4200554;28;20086;-66
2022/11/13 09:38:41;;;;;;;4.93;3.75;;;17.00;94.20;;;;;;4199656;28;20039;-66
2022/11/13 09:41:02;;;;;;;6.30;4.15;;;17.00;94.00;;;;;;4199895;28;20028;-66
2022/11/13 09:43:08;;;;;;;6.25;4.07;;;16.80;93.10;;;;;;4204174;28;20036;-67
2022/11/13 09:45:12;;;;;;;5.35;3.70;;;16.60;94.50;;;;;;4198977;28;20097;-67
2022/11/13 09:47:23;;;;;;;6.10;4.05;;;16.60;95.30;;;;;;4198361;28;20041;-66
2022/11/13 09:49:31;;;;;;;6.28;4.13;;;16.60;94.80;;;;;;4201267;28;20055;-66
2022/11/13 09:51:36;;;;;;;8.93;4.35;;;16.50;94.20;;;;;;4203526;28;20039;-65
2022/11/13 09:53:39;;;;;;;6.97;4.15;;;16.50;94.70;;;;;;4198353;28;20043;-66
2022/11/13 09:55:51;;;;;;;7.00;3.95;;;16.50;95.70;;;;;;4200351;28;20032;-66
2022/11/13 09:58:00;;;;;;;7.78;4.00;;;16.50;94.80;;;;;;4198848;28;20506;-66
2022/11/13 10:00:12;;;;;;;7.50;5.13;;;16.50;94.30;;;;;;4202494;28;20502;-66
2022/11/13 10:02:20;;;;;;;7.75;4.57;;;16.20;94.30;;;;;;4198794;28;20036;-65
2022/11/13 10:04:44;;;;;;;6.65;4.35;;;16.10;94.30;;;;;;4197668;28;20037;-66
2022/11/13 10:07:03;;;;;;;7.05;4.55;;;16.00;96.60;;;;;;4199485;28;20078;-66
2022/11/13 10:09:52;;;;;;;7.05;4.20;;;15.80;96.30;;;;;;4200668;28;20036;-66
2022/11/13 10:11:57;;;;;;;5.65;3.67;;;15.80;97.90;;;;;;4202007;28;20474;-66
2022/11/13 10:14:02;;;;;;;5.88;4.05;;;15.70;97.40;;;;;;4203827;28;20089;-65
2022/11/13 10:16:14;;;;;;;7.43;4.63;;;15.60;97.90;;;;;;4206605;28;20479;-66
2022/11/13 10:18:20;;;;;;;6.50;4.40;;;15.20;96.30;;;;;;4200296;28;20036;-67
2022/11/13 10:20:36;;;;;;;6.22;3.80;;;15.20;96.60;;;;;;4196184;28;20044;-65
2022/11/13 10:22:47;;;;;;;5.40;3.78;;;15.10;96.70;;;;;;4212891;28;20097;-65
2022/11/13 10:24:51;;;;;;;5.75;4.13;;;15.10;96.60;;;;;;4212513;28;20485;-66
2022/11/13 10:26:57;;;;;;;6.88;4.22;;;15.20;96.90;;;;;;4212236;28;20016;-66
2022/11/13 10:29:10;;;;;;;5.60;4.05;;;15.20;96.80;;;;;;4212997;28;20426;-66
2022/11/13 10:31:12;;;;;;;6.00;3.78;;;15.30;96.80;;;;;;4211994;28;20032;-66
2022/11/13 10:33:17;;;;;;;5.53;3.85;;;15.40;96.20;;;;;;4212883;28;20113;-66
2022/11/13 10:35:35;;;;;;;7.68;4.80;;;15.40;96.90;;;;;;4211547;28;20117;-66
2022/11/13 10:38:02;;;;;;;5.15;3.30;;;15.40;96.40;;;;;;4212193;28;20055;-66
2022/11/13 10:40:03;;;;;;;6.57;3.92;;;15.50;96.40;;;;;;4212308;28;20081;-68